Ana Sayfa
METAR-TAF:

METAR-TAF

Havaalanları :

Krasnodar Uluslararası Havalimanı

Krasnodar, Rusya

Enlem: 45-02N, Boylam: 039-09E, yükseklik: 33 m

Güncel hava durumu gözlemi

Rapor saat 06:00 UTC de 43 dakika önce yapıldı.
Rüzgar doğudan 8 kt
Sıcaklık 3°C
Nem 81%
Basınç 1025 hPa
Görüş mesafesi 10 km veya daha fazla
1500 m altında bulut yok ve kümülonimbus yok

METAR: URKK 180600Z 09004MPS CAVOK 03/00 Q1025 R05R/CLRD70 NOSIG RMK QFE765

Saat: 10:43 (06:43 UTC)

Tahmin

Rapor saat 04:54 UTC de 1 saat ve 49 dakika önce yapıldı.
Ayın 18'si saat 06 UTC'den ayın 19'si saat 06 UTC'ye kadar geçerli Tahmin
Rüzgar doğudan 6 kt ve 16 kt'a kadar ani rüzgarlar
Görüş mesafesi 10 km veya daha fazla
4000 ft yükseklikte parçalı bulutlu
Geçici
ayın 18'si saat 18 UTC'den ayın 19'si saat 06 UTC'ye kadar
Görüş mesafesi: 0500 m
300 ft yükseklikte parçalı bulutlu
sis

TAF: URKK 180454Z 1806/1906 09003G08MPS 9999 SCT040 TEMPO 1818/1906 0500 FG SCT003

4.000'den fazla havaalanı için hava durumu gözlemleri ve tahminleri (METAR ve TAF raporları).

Kullanılabilir istasyonlar harita üzerinde sarı ve kırmızı noktalarla gösterilir.

İstasyonun adını görmek için fareyi noktanın üzerinde gezdirin.

Sonrasında hava gözlem ve tahminlerini görmek için tıklayın.

Haritayı değiştirmek için: yaklaştırmak için siyah artı işaretli yeşil düğmeye ve uzaklaştırmak için de eksi işaretli düğmeye hızla tıklayın; bitişik haritalar için yeşil okları kullanın.


METAR-TAF: